Capitol Logistics 7492

Operating for MZN



KJFK
John F Kennedy International Airport
New York, New York
KPHX
Phoenix Sky Harbor International Airport
Phoenix, Arizona

Activity Log

Date Flight Route Aircraft Duration
07/07/2021 CPX7492 RBV Q430 VINSE Q430 AIR J110 STL J19 ROKNE J19 ZUN EAGUL6 A30F 4h 17m

Route Details

Aircraft Information
Group: North America Fleet
Types: B738,B752,B762,B763
Route Data
Distance: 1869nm
Duration: 5h 05m
Recm'd Route: RBV Q430 VINSE Q430 AIR J110 STL J19 ROKNE J19 ZUN EAGUL6
Origin Wx: KJFK 160751Z 19009KT 10SM FEW095 SCT120 SCT250 19/18 A2983 RMK AO2 SLP102 T01940178
Dest. Wx: KPHX 160751Z 05008KT 10SM CLR 23/M07 A3004 RMK AO2 SLP156 T02281072
Notes:

Financial History
Total Freight: 86,154lbs
Average Load: 86,154lbs/flt
Fuel Used: 52,655lbs
Avg. Fuel Used: 52,655lbs/flt
Fuel Expense: $11,058
Avg. Fuel Expense: $11,058
Avg. Fuel Cost: $0.21/lbs
Total Gross Income: $205,908
Pilot Pay: $259
Total Expenses: $26,140
Total Revenue: $167,597
Average Revenue: $205,908.06